sensor_id;sensor_type;location;lat;lon;timestamp;temperature;humidity
10042;DHT22;5061;49.068;12.058;2023-03-14T00:01:33;9.70;99.90
10042;DHT22;5061;49.068;12.058;2023-03-14T00:04:54;9.60;99.90
10042;DHT22;5061;49.068;12.058;2023-03-14T00:08:16;9.60;99.90
10042;DHT22;5061;49.068;12.058;2023-03-14T00:11:38;9.50;99.90
10042;DHT22;5061;49.068;12.058;2023-03-14T00:14:59;9.50;99.90
10042;DHT22;5061;49.068;12.058;2023-03-14T00:18:20;9.50;99.90
10042;DHT22;5061;49.068;12.058;2023-03-14T00:21:41;9.50;99.90
10042;DHT22;5061;49.068;12.058;2023-03-14T00:25:02;9.50;99.90
10042;DHT22;5061;49.068;12.058;2023-03-14T00:28:23;9.50;99.90
10042;DHT22;5061;49.068;12.058;2023-03-14T00:31:43;9.40;99.90
10042;DHT22;5061;49.068;12.058;2023-03-14T00:35:04;9.40;99.90
10042;DHT22;5061;49.068;12.058;2023-03-14T00:38:26;9.40;99.90
10042;DHT22;5061;49.068;12.058;2023-03-14T00:41:47;9.30;99.90
10042;DHT22;5061;49.068;12.058;2023-03-14T00:45:08;9.30;99.90
10042;DHT22;5061;49.068;12.058;2023-03-14T00:48:30;9.30;99.90
10042;DHT22;5061;49.068;12.058;2023-03-14T00:51:51;9.30;99.90
10042;DHT22;5061;49.068;12.058;2023-03-14T00:55:11;9.30;99.90
10042;DHT22;5061;49.068;12.058;2023-03-14T00:58:32;9.20;99.90
10042;DHT22;5061;49.068;12.058;2023-03-14T01:01:53;9.20;99.90
10042;DHT22;5061;49.068;12.058;2023-03-14T01:05:13;9.20;99.90
10042;DHT22;5061;49.068;12.058;2023-03-14T01:08:34;9.20;99.90
10042;DHT22;5061;49.068;12.058;2023-03-14T01:11:55;9.20;99.90
10042;DHT22;5061;49.068;12.058;2023-03-14T01:15:15;9.10;99.90
10042;DHT22;5061;49.068;12.058;2023-03-14T01:18:37;9.10;99.90
10042;DHT22;5061;49.068;12.058;2023-03-14T01:21:58;9.20;99.90
10042;DHT22;5061;49.068;12.058;2023-03-14T01:25:19;9.20;99.90
10042;DHT22;5061;49.068;12.058;2023-03-14T01:28:40;9.20;99.90
10042;DHT22;5061;49.068;12.058;2023-03-14T01:32:00;9.20;99.90
10042;DHT22;5061;49.068;12.058;2023-03-14T01:35:21;9.20;99.90
10042;DHT22;5061;49.068;12.058;2023-03-14T01:38:42;9.20;99.90
10042;DHT22;5061;49.068;12.058;2023-03-14T01:42:03;9.20;99.90
10042;DHT22;5061;49.068;12.058;2023-03-14T01:49:26;9.20;99.90
10042;DHT22;5061;49.068;12.058;2023-03-14T01:52:50;9.20;99.90
10042;DHT22;5061;49.068;12.058;2023-03-14T01:56:14;9.20;99.90
10042;DHT22;5061;49.068;12.058;2023-03-14T01:59:37;9.10;99.90
10042;DHT22;5061;49.068;12.058;2023-03-14T02:03:07;9.10;99.90
10042;DHT22;5061;49.068;12.058;2023-03-14T02:06:43;9.10;99.90
10042;DHT22;5061;49.068;12.058;2023-03-14T02:10:07;9.10;99.90
10042;DHT22;5061;49.068;12.058;2023-03-14T02:13:28;9.10;99.90
10042;DHT22;5061;49.068;12.058;2023-03-14T02:16:49;9.10;99.90
10042;DHT22;5061;49.068;12.058;2023-03-14T02:23:53;9.10;99.90
10042;DHT22;5061;49.068;12.058;2023-03-14T02:27:18;9.10;99.90
10042;DHT22;5061;49.068;12.058;2023-03-14T02:30:40;9.00;99.90
10042;DHT22;5061;49.068;12.058;2023-03-14T02:34:02;9.00;99.90
10042;DHT22;5061;49.068;12.058;2023-03-14T02:37:27;9.00;99.90
10042;DHT22;5061;49.068;12.058;2023-03-14T02:40:49;9.00;99.90
10042;DHT22;5061;49.068;12.058;2023-03-14T02:44:09;9.00;99.90
10042;DHT22;5061;49.068;12.058;2023-03-14T02:47:30;8.90;99.90
10042;DHT22;5061;49.068;12.058;2023-03-14T02:50:54;8.90;99.90
10042;DHT22;5061;49.068;12.058;2023-03-14T02:54:16;8.90;99.90
10042;DHT22;5061;49.068;12.058;2023-03-14T02:57:39;8.80;99.90
10042;DHT22;5061;49.068;12.058;2023-03-14T03:01:00;8.80;99.90
10042;DHT22;5061;49.068;12.058;2023-03-14T03:04:21;8.80;99.90
10042;DHT22;5061;49.068;12.058;2023-03-14T03:07:41;8.80;99.90
10042;DHT22;5061;49.068;12.058;2023-03-14T03:11:02;8.70;99.90
10042;DHT22;5061;49.068;12.058;2023-03-14T03:14:23;8.70;99.90
10042;DHT22;5061;49.068;12.058;2023-03-14T03:17:43;8.70;99.90
10042;DHT22;5061;49.068;12.058;2023-03-14T03:21:05;8.60;99.90
10042;DHT22;5061;49.068;12.058;2023-03-14T03:24:26;8.60;99.90
10042;DHT22;5061;49.068;12.058;2023-03-14T03:27:47;8.60;99.90
10042;DHT22;5061;49.068;12.058;2023-03-14T03:31:11;8.60;99.90
10042;DHT22;5061;49.068;12.058;2023-03-14T03:34:32;8.50;99.90
10042;DHT22;5061;49.068;12.058;2023-03-14T03:37:52;8.50;99.90
10042;DHT22;5061;49.068;12.058;2023-03-14T03:41:13;8.50;99.90
10042;DHT22;5061;49.068;12.058;2023-03-14T03:44:34;8.50;99.90
10042;DHT22;5061;49.068;12.058;2023-03-14T03:47:54;8.50;99.90
10042;DHT22;5061;49.068;12.058;2023-03-14T03:51:16;8.50;99.90
10042;DHT22;5061;49.068;12.058;2023-03-14T03:54:36;8.50;99.90
10042;DHT22;5061;49.068;12.058;2023-03-14T03:57:57;8.50;99.90
10042;DHT22;5061;49.068;12.058;2023-03-14T04:01:18;8.50;99.90
10042;DHT22;5061;49.068;12.058;2023-03-14T04:04:38;8.40;99.90
10042;DHT22;5061;49.068;12.058;2023-03-14T04:07:59;8.40;99.90
10042;DHT22;5061;49.068;12.058;2023-03-14T04:11:20;8.40;99.90
10042;DHT22;5061;49.068;12.058;2023-03-14T04:14:40;8.40;99.90
10042;DHT22;5061;49.068;12.058;2023-03-14T04:18:01;8.40;99.90
10042;DHT22;5061;49.068;12.058;2023-03-14T04:21:22;8.40;99.90
10042;DHT22;5061;49.068;12.058;2023-03-14T04:24:42;8.40;99.90
10042;DHT22;5061;49.068;12.058;2023-03-14T04:28:03;8.40;99.90
10042;DHT22;5061;49.068;12.058;2023-03-14T04:31:24;8.30;99.90
10042;DHT22;5061;49.068;12.058;2023-03-14T04:34:45;8.30;99.90
10042;DHT22;5061;49.068;12.058;2023-03-14T04:38:05;8.30;99.90
10042;DHT22;5061;49.068;12.058;2023-03-14T04:41:26;8.30;99.90
10042;DHT22;5061;49.068;12.058;2023-03-14T04:44:47;8.30;99.90
10042;DHT22;5061;49.068;12.058;2023-03-14T04:48:09;8.30;99.90
10042;DHT22;5061;49.068;12.058;2023-03-14T04:51:30;8.30;99.90
10042;DHT22;5061;49.068;12.058;2023-03-14T04:54:50;8.20;99.90
10042;DHT22;5061;49.068;12.058;2023-03-14T04:58:11;8.20;99.90
10042;DHT22;5061;49.068;12.058;2023-03-14T05:01:32;8.20;99.90
10042;DHT22;5061;49.068;12.058;2023-03-14T05:04:52;8.20;99.90
10042;DHT22;5061;49.068;12.058;2023-03-14T05:08:13;8.20;99.90
10042;DHT22;5061;49.068;12.058;2023-03-14T05:11:33;8.20;99.90
10042;DHT22;5061;49.068;12.058;2023-03-14T05:14:54;8.10;99.90
10042;DHT22;5061;49.068;12.058;2023-03-14T05:18:14;8.10;99.90
10042;DHT22;5061;49.068;12.058;2023-03-14T05:21:35;8.10;99.90
10042;DHT22;5061;49.068;12.058;2023-03-14T05:24:56;8.10;99.90
10042;DHT22;5061;49.068;12.058;2023-03-14T05:28:19;8.10;99.90
10042;DHT22;5061;49.068;12.058;2023-03-14T05:31:39;8.10;99.90
10042;DHT22;5061;49.068;12.058;2023-03-14T05:35:00;8.10;99.90
10042;DHT22;5061;49.068;12.058;2023-03-14T05:38:21;8.10;99.90
10042;DHT22;5061;49.068;12.058;2023-03-14T05:41:42;8.10;99.90
10042;DHT22;5061;49.068;12.058;2023-03-14T05:45:03;8.10;99.90
10042;DHT22;5061;49.068;12.058;2023-03-14T05:48:23;8.10;99.90
10042;DHT22;5061;49.068;12.058;2023-03-14T05:51:44;8.00;99.90
10042;DHT22;5061;49.068;12.058;2023-03-14T05:55:05;8.10;99.90
10042;DHT22;5061;49.068;12.058;2023-03-14T05:58:26;8.00;99.90
10042;DHT22;5061;49.068;12.058;2023-03-14T06:01:46;8.00;99.90
10042;DHT22;5061;49.068;12.058;2023-03-14T06:05:07;8.10;99.90
10042;DHT22;5061;49.068;12.058;2023-03-14T06:08:28;8.00;99.90
10042;DHT22;5061;49.068;12.058;2023-03-14T06:11:49;8.10;99.90
10042;DHT22;5061;49.068;12.058;2023-03-14T06:15:10;8.00;99.90
10042;DHT22;5061;49.068;12.058;2023-03-14T06:18:31;8.00;99.90
10042;DHT22;5061;49.068;12.058;2023-03-14T06:21:52;8.00;99.90
10042;DHT22;5061;49.068;12.058;2023-03-14T06:25:12;8.00;99.90
10042;DHT22;5061;49.068;12.058;2023-03-14T06:28:33;8.00;99.90
10042;DHT22;5061;49.068;12.058;2023-03-14T06:31:54;8.10;99.90
10042;DHT22;5061;49.068;12.058;2023-03-14T06:35:14;8.10;99.90
10042;DHT22;5061;49.068;12.058;2023-03-14T06:38:35;8.00;99.90
10042;DHT22;5061;49.068;12.058;2023-03-14T06:41:56;8.10;99.90
10042;DHT22;5061;49.068;12.058;2023-03-14T06:45:16;8.10;99.90
10042;DHT22;5061;49.068;12.058;2023-03-14T06:48:37;8.10;99.90
10042;DHT22;5061;49.068;12.058;2023-03-14T06:51:57;8.10;99.90
10042;DHT22;5061;49.068;12.058;2023-03-14T06:55:18;8.10;99.90
10042;DHT22;5061;49.068;12.058;2023-03-14T06:58:39;8.10;99.90
10042;DHT22;5061;49.068;12.058;2023-03-14T07:01:59;8.10;99.90
10042;DHT22;5061;49.068;12.058;2023-03-14T07:05:20;8.10;99.90
10042;DHT22;5061;49.068;12.058;2023-03-14T07:08:40;8.10;99.90
10042;DHT22;5061;49.068;12.058;2023-03-14T07:12:02;8.10;99.90
10042;DHT22;5061;49.068;12.058;2023-03-14T07:15:24;8.10;99.90
10042;DHT22;5061;49.068;12.058;2023-03-14T07:18:45;8.10;99.90
10042;DHT22;5061;49.068;12.058;2023-03-14T07:22:05;8.10;99.90
10042;DHT22;5061;49.068;12.058;2023-03-14T07:25:26;8.10;99.90
10042;DHT22;5061;49.068;12.058;2023-03-14T07:28:47;8.10;99.90
10042;DHT22;5061;49.068;12.058;2023-03-14T07:32:07;8.10;99.90
10042;DHT22;5061;49.068;12.058;2023-03-14T07:35:28;8.10;99.90
10042;DHT22;5061;49.068;12.058;2023-03-14T07:38:49;8.20;99.90
10042;DHT22;5061;49.068;12.058;2023-03-14T07:42:09;8.20;99.90
10042;DHT22;5061;49.068;12.058;2023-03-14T07:45:31;8.20;99.90
10042;DHT22;5061;49.068;12.058;2023-03-14T07:48:51;8.20;99.90
10042;DHT22;5061;49.068;12.058;2023-03-14T07:52:12;8.20;99.90
10042;DHT22;5061;49.068;12.058;2023-03-14T07:55:33;8.20;99.90
10042;DHT22;5061;49.068;12.058;2023-03-14T07:58:53;8.30;99.90
10042;DHT22;5061;49.068;12.058;2023-03-14T08:02:14;8.30;99.90
10042;DHT22;5061;49.068;12.058;2023-03-14T08:05:35;8.30;99.90
10042;DHT22;5061;49.068;12.058;2023-03-14T08:08:56;8.30;99.90
10042;DHT22;5061;49.068;12.058;2023-03-14T08:12:17;8.30;99.90
10042;DHT22;5061;49.068;12.058;2023-03-14T08:15:37;8.30;99.90
10042;DHT22;5061;49.068;12.058;2023-03-14T08:18:58;8.30;99.90
10042;DHT22;5061;49.068;12.058;2023-03-14T08:22:19;8.40;99.90
10042;DHT22;5061;49.068;12.058;2023-03-14T08:25:39;8.40;99.90
10042;DHT22;5061;49.068;12.058;2023-03-14T08:29:06;8.40;99.90
10042;DHT22;5061;49.068;12.058;2023-03-14T08:32:28;8.40;99.90
10042;DHT22;5061;49.068;12.058;2023-03-14T08:35:52;8.50;99.90
10042;DHT22;5061;49.068;12.058;2023-03-14T08:39:13;8.50;99.90
10042;DHT22;5061;49.068;12.058;2023-03-14T08:42:34;8.60;99.90
10042;DHT22;5061;49.068;12.058;2023-03-14T08:45:58;8.60;99.90
10042;DHT22;5061;49.068;12.058;2023-03-14T08:49:19;8.60;99.90
10042;DHT22;5061;49.068;12.058;2023-03-14T08:52:40;8.70;99.90
10042;DHT22;5061;49.068;12.058;2023-03-14T08:56:01;8.80;99.90
10042;DHT22;5061;49.068;12.058;2023-03-14T08:59:22;8.90;99.90
10042;DHT22;5061;49.068;12.058;2023-03-14T09:02:42;8.90;99.90
10042;DHT22;5061;49.068;12.058;2023-03-14T09:06:09;9.00;99.90
10042;DHT22;5061;49.068;12.058;2023-03-14T09:09:30;9.00;99.90
10042;DHT22;5061;49.068;12.058;2023-03-14T09:12:51;9.10;99.90
10042;DHT22;5061;49.068;12.058;2023-03-14T09:16:12;9.10;99.90
10042;DHT22;5061;49.068;12.058;2023-03-14T09:19:32;9.20;99.90
10042;DHT22;5061;49.068;12.058;2023-03-14T09:22:53;9.20;99.90
10042;DHT22;5061;49.068;12.058;2023-03-14T09:26:14;9.30;99.90
10042;DHT22;5061;49.068;12.058;2023-03-14T09:29:34;9.30;99.90
10042;DHT22;5061;49.068;12.058;2023-03-14T09:32:55;9.40;99.90
10042;DHT22;5061;49.068;12.058;2023-03-14T09:36:17;9.50;99.90
10042;DHT22;5061;49.068;12.058;2023-03-14T09:39:37;9.50;99.90
10042;DHT22;5061;49.068;12.058;2023-03-14T09:42:58;9.60;99.90
10042;DHT22;5061;49.068;12.058;2023-03-14T09:46:19;9.60;99.90
10042;DHT22;5061;49.068;12.058;2023-03-14T09:49:41;9.60;99.90
10042;DHT22;5061;49.068;12.058;2023-03-14T09:53:06;9.70;99.90
10042;DHT22;5061;49.068;12.058;2023-03-14T09:56:31;9.70;99.90
10042;DHT22;5061;49.068;12.058;2023-03-14T09:59:56;9.80;99.90
10042;DHT22;5061;49.068;12.058;2023-03-14T10:03:34;9.80;99.90
10042;DHT22;5061;49.068;12.058;2023-03-14T10:06:55;9.80;99.90
10042;DHT22;5061;49.068;12.058;2023-03-14T10:14:09;9.90;99.90
10042;DHT22;5061;49.068;12.058;2023-03-14T10:17:28;9.90;99.90
10042;DHT22;5061;49.068;12.058;2023-03-14T10:21:00;10.00;99.90
10042;DHT22;5061;49.068;12.058;2023-03-14T10:24:26;10.00;99.90
10042;DHT22;5061;49.068;12.058;2023-03-14T10:27:47;10.10;99.90
10042;DHT22;5061;49.068;12.058;2023-03-14T10:31:08;10.10;99.90
10042;DHT22;5061;49.068;12.058;2023-03-14T10:34:37;10.20;99.90
10042;DHT22;5061;49.068;12.058;2023-03-14T10:38:00;10.30;99.90
10042;DHT22;5061;49.068;12.058;2023-03-14T10:41:25;10.30;99.90
10042;DHT22;5061;49.068;12.058;2023-03-14T10:44:51;10.40;99.90
10042;DHT22;5061;49.068;12.058;2023-03-14T10:48:30;10.40;99.90
10042;DHT22;5061;49.068;12.058;2023-03-14T10:51:51;10.50;99.90
10042;DHT22;5061;49.068;12.058;2023-03-14T10:55:13;10.60;99.90
10042;DHT22;5061;49.068;12.058;2023-03-14T10:58:47;10.60;99.90
10042;DHT22;5061;49.068;12.058;2023-03-14T11:05:57;10.70;99.90
10042;DHT22;5061;49.068;12.058;2023-03-14T11:23:58;10.80;99.90
10042;DHT22;5061;49.068;12.058;2023-03-14T11:31:19;10.80;99.90
10042;DHT22;5061;49.068;12.058;2023-03-14T11:34:52;10.90;99.90
10042;DHT22;5061;49.068;12.058;2023-03-14T11:41:58;11.00;99.90
10042;DHT22;5061;49.068;12.058;2023-03-14T11:45:25;11.00;99.90
10042;DHT22;5061;49.068;12.058;2023-03-14T11:49:22;11.10;99.90
10042;DHT22;5061;49.068;12.058;2023-03-14T11:52:56;11.10;99.90
10042;DHT22;5061;49.068;12.058;2023-03-14T11:56:42;11.20;99.90
10042;DHT22;5061;49.068;12.058;2023-03-14T12:00:21;11.10;99.90
10042;DHT22;5061;49.068;12.058;2023-03-14T12:04:20;11.10;99.90
10042;DHT22;5061;49.068;12.058;2023-03-14T12:11:44;11.20;99.90
10042;DHT22;5061;49.068;12.058;2023-03-14T12:15:18;11.30;99.90
10042;DHT22;5061;49.068;12.058;2023-03-14T12:18:40;11.30;99.90
10042;DHT22;5061;49.068;12.058;2023-03-14T12:22:24;11.30;99.90
10042;DHT22;5061;49.068;12.058;2023-03-14T12:25:46;11.30;99.90
10042;DHT22;5061;49.068;12.058;2023-03-14T12:29:26;11.30;99.90
10042;DHT22;5061;49.068;12.058;2023-03-14T12:40:30;11.20;99.90
10042;DHT22;5061;49.068;12.058;2023-03-14T12:43:52;11.20;99.90
10042;DHT22;5061;49.068;12.058;2023-03-14T12:51:05;11.20;99.90
10042;DHT22;5061;49.068;12.058;2023-03-14T12:54:57;11.30;99.90
10042;DHT22;5061;49.068;12.058;2023-03-14T13:01:53;11.50;99.90
10042;DHT22;5061;49.068;12.058;2023-03-14T13:05:22;11.60;99.90
10042;DHT22;5061;49.068;12.058;2023-03-14T13:08:45;11.60;99.90
10042;DHT22;5061;49.068;12.058;2023-03-14T13:12:16;11.60;99.90
10042;DHT22;5061;49.068;12.058;2023-03-14T13:15:43;11.50;99.90
10042;DHT22;5061;49.068;12.058;2023-03-14T13:19:14;11.50;99.90
10042;DHT22;5061;49.068;12.058;2023-03-14T13:22:37;11.40;99.90
10042;DHT22;5061;49.068;12.058;2023-03-14T13:26:00;11.30;99.90
10042;DHT22;5061;49.068;12.058;2023-03-14T13:29:26;11.30;99.90
10042;DHT22;5061;49.068;12.058;2023-03-14T13:32:49;11.20;99.90
10042;DHT22;5061;49.068;12.058;2023-03-14T13:36:10;11.00;99.90
10042;DHT22;5061;49.068;12.058;2023-03-14T13:39:30;11.00;99.90
10042;DHT22;5061;49.068;12.058;2023-03-14T13:43:15;11.10;99.90
10042;DHT22;5061;49.068;12.058;2023-03-14T13:46:36;11.40;99.90
10042;DHT22;5061;49.068;12.058;2023-03-14T13:49:58;11.50;99.90
10042;DHT22;5061;49.068;12.058;2023-03-14T13:53:19;11.50;99.90
10042;DHT22;5061;49.068;12.058;2023-03-14T13:56:39;11.50;99.90
10042;DHT22;5061;49.068;12.058;2023-03-14T14:00:06;11.50;99.90
10042;DHT22;5061;49.068;12.058;2023-03-14T14:03:36;11.40;99.90
10042;DHT22;5061;49.068;12.058;2023-03-14T14:06:59;11.20;99.90
10042;DHT22;5061;49.068;12.058;2023-03-14T14:10:21;11.00;99.90
10042;DHT22;5061;49.068;12.058;2023-03-14T14:13:42;10.70;99.90
10042;DHT22;5061;49.068;12.058;2023-03-14T14:17:06;10.20;99.90
10042;DHT22;5061;49.068;12.058;2023-03-14T14:23:53;9.60;99.90
10042;DHT22;5061;49.068;12.058;2023-03-14T14:27:19;9.50;99.90
10042;DHT22;5061;49.068;12.058;2023-03-14T14:30:45;9.40;99.90
10042;DHT22;5061;49.068;12.058;2023-03-14T14:34:19;9.40;99.90
10042;DHT22;5061;49.068;12.058;2023-03-14T14:37:44;9.40;99.90
10042;DHT22;5061;49.068;12.058;2023-03-14T14:41:04;9.30;99.90
10042;DHT22;5061;49.068;12.058;2023-03-14T14:44:32;9.30;99.90
10042;DHT22;5061;49.068;12.058;2023-03-14T14:48:04;9.30;99.90
10042;DHT22;5061;49.068;12.058;2023-03-14T14:51:30;9.20;99.90
10042;DHT22;5061;49.068;12.058;2023-03-14T14:54:58;9.20;99.90
10042;DHT22;5061;49.068;12.058;2023-03-14T14:58:25;9.20;99.90
10042;DHT22;5061;49.068;12.058;2023-03-14T15:01:46;9.10;99.90
10042;DHT22;5061;49.068;12.058;2023-03-14T15:05:16;9.10;99.90
10042;DHT22;5061;49.068;12.058;2023-03-14T15:08:37;9.00;99.90
10042;DHT22;5061;49.068;12.058;2023-03-14T15:11:58;9.00;99.90
10042;DHT22;5061;49.068;12.058;2023-03-14T15:15:19;9.00;99.90
10042;DHT22;5061;49.068;12.058;2023-03-14T15:18:39;9.00;99.90
10042;DHT22;5061;49.068;12.058;2023-03-14T15:22:00;9.00;99.90
10042;DHT22;5061;49.068;12.058;2023-03-14T15:25:21;9.00;99.90
10042;DHT22;5061;49.068;12.058;2023-03-14T15:28:41;8.90;99.90
10042;DHT22;5061;49.068;12.058;2023-03-14T15:32:02;8.80;99.90
10042;DHT22;5061;49.068;12.058;2023-03-14T15:35:23;8.80;99.90
10042;DHT22;5061;49.068;12.058;2023-03-14T15:38:44;8.70;99.90
10042;DHT22;5061;49.068;12.058;2023-03-14T15:42:05;8.60;99.90
10042;DHT22;5061;49.068;12.058;2023-03-14T15:45:25;8.40;99.90
10042;DHT22;5061;49.068;12.058;2023-03-14T15:48:46;8.40;99.90
10042;DHT22;5061;49.068;12.058;2023-03-14T15:52:07;8.20;99.90
10042;DHT22;5061;49.068;12.058;2023-03-14T15:55:28;8.10;99.90
10042;DHT22;5061;49.068;12.058;2023-03-14T15:58:49;7.90;99.90
10042;DHT22;5061;49.068;12.058;2023-03-14T16:02:12;7.80;99.90
10042;DHT22;5061;49.068;12.058;2023-03-14T16:05:34;7.70;99.90
10042;DHT22;5061;49.068;12.058;2023-03-14T16:08:55;7.60;99.90
10042;DHT22;5061;49.068;12.058;2023-03-14T16:12:15;7.60;99.90
10042;DHT22;5061;49.068;12.058;2023-03-14T16:15:36;7.50;99.90
10042;DHT22;5061;49.068;12.058;2023-03-14T16:18:57;7.40;99.90
10042;DHT22;5061;49.068;12.058;2023-03-14T16:22:17;7.30;99.90
10042;DHT22;5061;49.068;12.058;2023-03-14T16:25:38;7.20;99.90
10042;DHT22;5061;49.068;12.058;2023-03-14T16:28:59;7.20;99.90
10042;DHT22;5061;49.068;12.058;2023-03-14T16:32:20;7.10;99.90
10042;DHT22;5061;49.068;12.058;2023-03-14T16:35:41;7.00;99.90
10042;DHT22;5061;49.068;12.058;2023-03-14T16:39:02;6.90;99.90
10042;DHT22;5061;49.068;12.058;2023-03-14T16:42:23;6.90;99.90
10042;DHT22;5061;49.068;12.058;2023-03-14T16:45:43;6.80;99.90
10042;DHT22;5061;49.068;12.058;2023-03-14T16:49:04;6.80;99.90
10042;DHT22;5061;49.068;12.058;2023-03-14T16:52:25;6.80;99.90
10042;DHT22;5061;49.068;12.058;2023-03-14T16:55:46;6.80;99.90
10042;DHT22;5061;49.068;12.058;2023-03-14T16:59:07;6.70;99.90
10042;DHT22;5061;49.068;12.058;2023-03-14T17:02:27;6.70;99.90
10042;DHT22;5061;49.068;12.058;2023-03-14T17:05:50;6.60;99.90
10042;DHT22;5061;49.068;12.058;2023-03-14T17:09:11;6.60;99.90
10042;DHT22;5061;49.068;12.058;2023-03-14T17:12:32;6.60;99.90
10042;DHT22;5061;49.068;12.058;2023-03-14T17:15:54;6.50;99.90
10042;DHT22;5061;49.068;12.058;2023-03-14T17:19:15;6.50;99.90
10042;DHT22;5061;49.068;12.058;2023-03-14T17:22:35;6.40;99.90
10042;DHT22;5061;49.068;12.058;2023-03-14T17:25:56;6.40;99.90
10042;DHT22;5061;49.068;12.058;2023-03-14T17:29:17;6.40;99.90
10042;DHT22;5061;49.068;12.058;2023-03-14T17:32:37;6.30;99.90
10042;DHT22;5061;49.068;12.058;2023-03-14T17:35:58;6.30;99.90
10042;DHT22;5061;49.068;12.058;2023-03-14T17:39:27;6.30;99.90
10042;DHT22;5061;49.068;12.058;2023-03-14T17:42:49;6.20;99.90
10042;DHT22;5061;49.068;12.058;2023-03-14T17:46:11;6.30;99.90
10042;DHT22;5061;49.068;12.058;2023-03-14T17:49:34;6.20;99.90
10042;DHT22;5061;49.068;12.058;2023-03-14T17:52:56;6.20;99.90
10042;DHT22;5061;49.068;12.058;2023-03-14T17:56:21;6.20;99.90
10042;DHT22;5061;49.068;12.058;2023-03-14T17:59:42;6.20;99.90
10042;DHT22;5061;49.068;12.058;2023-03-14T18:03:03;6.20;99.90
10042;DHT22;5061;49.068;12.058;2023-03-14T18:06:24;6.20;99.90
10042;DHT22;5061;49.068;12.058;2023-03-14T18:09:46;6.20;99.90
10042;DHT22;5061;49.068;12.058;2023-03-14T18:13:07;6.10;99.90
10042;DHT22;5061;49.068;12.058;2023-03-14T18:16:27;6.20;99.90
10042;DHT22;5061;49.068;12.058;2023-03-14T18:19:48;6.10;99.90
10042;DHT22;5061;49.068;12.058;2023-03-14T18:23:09;6.10;99.90
10042;DHT22;5061;49.068;12.058;2023-03-14T18:26:30;6.10;99.90
10042;DHT22;5061;49.068;12.058;2023-03-14T18:29:50;6.00;99.90
10042;DHT22;5061;49.068;12.058;2023-03-14T18:33:11;6.00;99.90
10042;DHT22;5061;49.068;12.058;2023-03-14T18:36:33;6.00;99.90
10042;DHT22;5061;49.068;12.058;2023-03-14T18:39:54;6.00;99.90
10042;DHT22;5061;49.068;12.058;2023-03-14T18:43:15;6.00;99.90
10042;DHT22;5061;49.068;12.058;2023-03-14T18:46:35;5.90;99.90
10042;DHT22;5061;49.068;12.058;2023-03-14T18:49:56;5.90;99.90
10042;DHT22;5061;49.068;12.058;2023-03-14T18:53:18;5.90;99.90
10042;DHT22;5061;49.068;12.058;2023-03-14T18:56:41;5.80;99.90
10042;DHT22;5061;49.068;12.058;2023-03-14T19:00:02;5.80;99.90
10042;DHT22;5061;49.068;12.058;2023-03-14T19:03:24;5.80;99.90
10042;DHT22;5061;49.068;12.058;2023-03-14T19:06:45;5.70;99.90
10042;DHT22;5061;49.068;12.058;2023-03-14T19:10:06;5.80;99.90
10042;DHT22;5061;49.068;12.058;2023-03-14T19:13:27;5.70;99.90
10042;DHT22;5061;49.068;12.058;2023-03-14T19:16:51;5.70;99.90
10042;DHT22;5061;49.068;12.058;2023-03-14T19:20:11;5.60;99.90
10042;DHT22;5061;49.068;12.058;2023-03-14T19:23:34;5.60;99.90
10042;DHT22;5061;49.068;12.058;2023-03-14T19:26:54;5.60;99.90
10042;DHT22;5061;49.068;12.058;2023-03-14T19:30:15;5.60;99.90
10042;DHT22;5061;49.068;12.058;2023-03-14T19:33:36;5.60;99.90
10042;DHT22;5061;49.068;12.058;2023-03-14T19:36:58;5.50;99.90
10042;DHT22;5061;49.068;12.058;2023-03-14T19:40:19;5.50;99.90
10042;DHT22;5061;49.068;12.058;2023-03-14T19:43:43;5.50;99.90
10042;DHT22;5061;49.068;12.058;2023-03-14T19:47:06;5.50;99.90
10042;DHT22;5061;49.068;12.058;2023-03-14T19:50:27;5.50;99.90
10042;DHT22;5061;49.068;12.058;2023-03-14T19:53:48;5.40;99.90
10042;DHT22;5061;49.068;12.058;2023-03-14T19:57:09;5.40;99.90
10042;DHT22;5061;49.068;12.058;2023-03-14T20:00:30;5.30;99.90
10042;DHT22;5061;49.068;12.058;2023-03-14T20:03:52;5.30;99.90
10042;DHT22;5061;49.068;12.058;2023-03-14T20:07:13;5.30;99.90
10042;DHT22;5061;49.068;12.058;2023-03-14T20:10:35;5.30;99.90
10042;DHT22;5061;49.068;12.058;2023-03-14T20:13:56;5.40;99.90
10042;DHT22;5061;49.068;12.058;2023-03-14T20:17:17;5.30;99.90
10042;DHT22;5061;49.068;12.058;2023-03-14T20:20:39;5.30;99.90
10042;DHT22;5061;49.068;12.058;2023-03-14T20:24:01;5.40;99.90
10042;DHT22;5061;49.068;12.058;2023-03-14T20:27:22;5.30;99.90
10042;DHT22;5061;49.068;12.058;2023-03-14T20:30:43;5.30;99.90
10042;DHT22;5061;49.068;12.058;2023-03-14T20:34:04;5.30;99.90
10042;DHT22;5061;49.068;12.058;2023-03-14T20:37:25;5.20;99.90
10042;DHT22;5061;49.068;12.058;2023-03-14T20:40:46;5.20;99.90
10042;DHT22;5061;49.068;12.058;2023-03-14T20:44:08;5.10;99.90
10042;DHT22;5061;49.068;12.058;2023-03-14T20:47:34;5.10;99.90
10042;DHT22;5061;49.068;12.058;2023-03-14T20:50:56;5.00;99.90
10042;DHT22;5061;49.068;12.058;2023-03-14T20:54:17;4.90;99.90
10042;DHT22;5061;49.068;12.058;2023-03-14T20:57:38;4.90;99.90
10042;DHT22;5061;49.068;12.058;2023-03-14T21:01:00;4.90;99.90
10042;DHT22;5061;49.068;12.058;2023-03-14T21:04:24;4.80;99.90
10042;DHT22;5061;49.068;12.058;2023-03-14T21:07:44;4.80;99.90
10042;DHT22;5061;49.068;12.058;2023-03-14T21:11:05;4.80;99.90
10042;DHT22;5061;49.068;12.058;2023-03-14T21:14:26;4.90;99.90
10042;DHT22;5061;49.068;12.058;2023-03-14T21:17:50;4.90;99.90
10042;DHT22;5061;49.068;12.058;2023-03-14T21:21:13;4.90;99.90
10042;DHT22;5061;49.068;12.058;2023-03-14T21:24:33;4.90;99.90
10042;DHT22;5061;49.068;12.058;2023-03-14T21:27:55;4.90;99.90
10042;DHT22;5061;49.068;12.058;2023-03-14T21:31:16;4.90;99.90
10042;DHT22;5061;49.068;12.058;2023-03-14T21:34:36;4.90;99.90
10042;DHT22;5061;49.068;12.058;2023-03-14T21:37:57;4.90;99.90
10042;DHT22;5061;49.068;12.058;2023-03-14T21:41:18;4.80;99.90
10042;DHT22;5061;49.068;12.058;2023-03-14T21:44:42;4.80;99.90
10042;DHT22;5061;49.068;12.058;2023-03-14T21:48:07;4.80;99.90
10042;DHT22;5061;49.068;12.058;2023-03-14T21:51:28;4.80;99.90
10042;DHT22;5061;49.068;12.058;2023-03-14T21:54:50;4.80;99.90
10042;DHT22;5061;49.068;12.058;2023-03-14T21:58:11;4.80;99.90
10042;DHT22;5061;49.068;12.058;2023-03-14T22:01:34;4.80;99.90
10042;DHT22;5061;49.068;12.058;2023-03-14T22:04:54;4.70;99.90
10042;DHT22;5061;49.068;12.058;2023-03-14T22:08:16;4.70;99.90
10042;DHT22;5061;49.068;12.058;2023-03-14T22:11:37;4.70;99.90
10042;DHT22;5061;49.068;12.058;2023-03-14T22:14:57;4.70;99.90
10042;DHT22;5061;49.068;12.058;2023-03-14T22:18:18;4.70;99.90
10042;DHT22;5061;49.068;12.058;2023-03-14T22:21:39;4.70;99.90
10042;DHT22;5061;49.068;12.058;2023-03-14T22:24:59;4.70;99.90
10042;DHT22;5061;49.068;12.058;2023-03-14T22:28:20;4.70;99.90
10042;DHT22;5061;49.068;12.058;2023-03-14T22:31:41;4.70;99.90
10042;DHT22;5061;49.068;12.058;2023-03-14T22:35:02;4.60;99.90
10042;DHT22;5061;49.068;12.058;2023-03-14T22:38:22;4.60;99.90